Caroline, Ohio
Current Conditions -  °F | °C
As of 7:52 PM on Monday 24 Nov 2014 (Local Time) from KMFD Reporting Station
Overcast Overcast  
Wind Chill: 32°   Ceiling: 2900
Heat Index: 42°   Visibility: 10mi
Dew Point: 32°   Wind: 28mph
Humidity: 67%   Direction: 220°SW
Pressure: 29.71"   Gusts: 45mph
Location:  41.0654°N, 82.876°W
Report Text: KMFD 250052Z 22024G39KT 10SM OVC029 06/00 A2971 RMK AO2 PK WND 23039/0047 SLP064 T00560000
Loading
Personal Weather Stations






























Interactive Weather Map New forecast layout! Learn more

10-Day Weather Forecast

Advertisements
Track Severe Weather on mobile